sensor_id;sensor_type;location;lat;lon;timestamp;P1;durP1;ratioP1;P2;durP2;ratioP2
15454;SDS011;21057;51.024;7.540;2022-11-22T00:01:49;28.60;;;26.97;;
15454;SDS011;21057;51.024;7.540;2022-11-22T00:04:16;29.00;;;27.40;;
15454;SDS011;21057;51.024;7.540;2022-11-22T00:06:44;29.57;;;27.87;;
15454;SDS011;21057;51.024;7.540;2022-11-22T00:09:11;29.80;;;28.07;;
15454;SDS011;21057;51.024;7.540;2022-11-22T00:11:38;29.23;;;27.63;;
15454;SDS011;21057;51.024;7.540;2022-11-22T00:14:05;30.23;;;27.70;;
15454;SDS011;21057;51.024;7.540;2022-11-22T00:16:32;29.53;;;27.93;;
15454;SDS011;21057;51.024;7.540;2022-11-22T00:18:59;28.23;;;26.63;;
15454;SDS011;21057;51.024;7.540;2022-11-22T00:21:25;29.93;;;28.23;;
15454;SDS011;21057;51.024;7.540;2022-11-22T00:23:55;30.23;;;28.40;;
15454;SDS011;21057;51.024;7.540;2022-11-22T00:26:22;30.63;;;28.77;;
15454;SDS011;21057;51.024;7.540;2022-11-22T00:28:49;29.77;;;28.10;;
15454;SDS011;21057;51.024;7.540;2022-11-22T00:31:16;30.67;;;28.80;;
15454;SDS011;21057;51.024;7.540;2022-11-22T00:33:43;29.50;;;27.80;;
15454;SDS011;21057;51.024;7.540;2022-11-22T00:36:10;29.80;;;27.90;;
15454;SDS011;21057;51.024;7.540;2022-11-22T00:38:36;30.67;;;28.97;;
15454;SDS011;21057;51.024;7.540;2022-11-22T00:41:04;31.77;;;29.97;;
15454;SDS011;21057;51.024;7.540;2022-11-22T00:43:31;30.80;;;29.00;;
15454;SDS011;21057;51.024;7.540;2022-11-22T00:45:58;30.00;;;28.30;;
15454;SDS011;21057;51.024;7.540;2022-11-22T00:48:25;33.10;;;30.37;;
15454;SDS011;21057;51.024;7.540;2022-11-22T00:50:52;30.60;;;28.77;;
15454;SDS011;21057;51.024;7.540;2022-11-22T00:53:20;32.77;;;30.33;;
15454;SDS011;21057;51.024;7.540;2022-11-22T00:55:47;30.83;;;28.73;;
15454;SDS011;21057;51.024;7.540;2022-11-22T00:58:15;31.00;;;29.23;;
15454;SDS011;21057;51.024;7.540;2022-11-22T01:00:41;31.23;;;29.30;;
15454;SDS011;21057;51.024;7.540;2022-11-22T01:03:09;31.90;;;30.20;;
15454;SDS011;21057;51.024;7.540;2022-11-22T01:05:36;32.27;;;30.20;;
15454;SDS011;21057;51.024;7.540;2022-11-22T01:08:03;34.30;;;32.13;;
15454;SDS011;21057;51.024;7.540;2022-11-22T01:10:30;31.10;;;29.30;;
15454;SDS011;21057;51.024;7.540;2022-11-22T01:12:59;33.50;;;31.20;;
15454;SDS011;21057;51.024;7.540;2022-11-22T01:15:27;30.77;;;28.87;;
15454;SDS011;21057;51.024;7.540;2022-11-22T01:17:54;30.30;;;28.50;;
15454;SDS011;21057;51.024;7.540;2022-11-22T01:20:21;32.47;;;30.50;;
15454;SDS011;21057;51.024;7.540;2022-11-22T01:22:48;33.53;;;31.10;;
15454;SDS011;21057;51.024;7.540;2022-11-22T01:25:15;31.90;;;29.90;;
15454;SDS011;21057;51.024;7.540;2022-11-22T01:27:43;31.37;;;29.43;;
15454;SDS011;21057;51.024;7.540;2022-11-22T01:30:10;31.27;;;29.47;;
15454;SDS011;21057;51.024;7.540;2022-11-22T01:32:38;32.43;;;30.23;;
15454;SDS011;21057;51.024;7.540;2022-11-22T01:35:05;32.47;;;30.57;;
15454;SDS011;21057;51.024;7.540;2022-11-22T01:37:33;32.53;;;30.53;;
15454;SDS011;21057;51.024;7.540;2022-11-22T01:39:59;31.60;;;29.80;;
15454;SDS011;21057;51.024;7.540;2022-11-22T01:42:38;31.23;;;29.17;;
15454;SDS011;21057;51.024;7.540;2022-11-22T01:48:06;31.23;;;29.50;;
15454;SDS011;21057;51.024;7.540;2022-11-22T01:50:42;31.27;;;29.47;;
15454;SDS011;21057;51.024;7.540;2022-11-22T01:53:13;30.87;;;29.07;;
15454;SDS011;21057;51.024;7.540;2022-11-22T01:55:44;30.77;;;29.00;;
15454;SDS011;21057;51.024;7.540;2022-11-22T01:58:11;29.37;;;27.67;;
15454;SDS011;21057;51.024;7.540;2022-11-22T02:00:41;31.10;;;28.87;;
15454;SDS011;21057;51.024;7.540;2022-11-22T02:03:10;30.87;;;28.87;;
15454;SDS011;21057;51.024;7.540;2022-11-22T02:05:40;30.23;;;28.47;;
15454;SDS011;21057;51.024;7.540;2022-11-22T02:08:08;29.33;;;27.63;;
15454;SDS011;21057;51.024;7.540;2022-11-22T02:10:41;28.73;;;27.03;;
15454;SDS011;21057;51.024;7.540;2022-11-22T02:13:11;29.67;;;27.83;;
15454;SDS011;21057;51.024;7.540;2022-11-22T02:15:40;29.53;;;27.70;;
15454;SDS011;21057;51.024;7.540;2022-11-22T02:18:07;28.50;;;26.90;;
15454;SDS011;21057;51.024;7.540;2022-11-22T02:20:35;29.10;;;27.30;;
15454;SDS011;21057;51.024;7.540;2022-11-22T02:23:06;29.97;;;28.17;;
15454;SDS011;21057;51.024;7.540;2022-11-22T02:25:46;31.40;;;29.27;;
15454;SDS011;21057;51.024;7.540;2022-11-22T02:28:15;28.27;;;26.60;;
15454;SDS011;21057;51.024;7.540;2022-11-22T02:30:42;30.87;;;28.83;;
15454;SDS011;21057;51.024;7.540;2022-11-22T02:33:09;30.83;;;28.83;;
15454;SDS011;21057;51.024;7.540;2022-11-22T02:35:36;32.60;;;30.73;;
15454;SDS011;21057;51.024;7.540;2022-11-22T02:38:05;32.00;;;30.20;;
15454;SDS011;21057;51.024;7.540;2022-11-22T02:40:35;30.33;;;28.53;;
15454;SDS011;21057;51.024;7.540;2022-11-22T02:43:07;30.90;;;29.20;;
15454;SDS011;21057;51.024;7.540;2022-11-22T02:45:36;30.83;;;29.03;;
15454;SDS011;21057;51.024;7.540;2022-11-22T02:48:04;31.50;;;29.33;;
15454;SDS011;21057;51.024;7.540;2022-11-22T02:50:32;29.67;;;27.90;;
15454;SDS011;21057;51.024;7.540;2022-11-22T02:52:59;30.57;;;28.87;;
15454;SDS011;21057;51.024;7.540;2022-11-22T02:55:26;30.97;;;28.80;;
15454;SDS011;21057;51.024;7.540;2022-11-22T02:57:53;30.33;;;28.63;;
15454;SDS011;21057;51.024;7.540;2022-11-22T03:00:21;30.93;;;29.13;;
15454;SDS011;21057;51.024;7.540;2022-11-22T03:02:48;31.60;;;29.80;;
15454;SDS011;21057;51.024;7.540;2022-11-22T03:05:16;30.93;;;29.20;;
15454;SDS011;21057;51.024;7.540;2022-11-22T03:07:43;31.77;;;29.53;;
15454;SDS011;21057;51.024;7.540;2022-11-22T03:10:09;30.20;;;28.47;;
15454;SDS011;21057;51.024;7.540;2022-11-22T03:12:36;30.63;;;28.77;;
15454;SDS011;21057;51.024;7.540;2022-11-22T03:15:03;30.83;;;29.03;;
15454;SDS011;21057;51.024;7.540;2022-11-22T03:17:32;28.87;;;27.27;;
15454;SDS011;21057;51.024;7.540;2022-11-22T03:19:59;29.67;;;28.00;;
15454;SDS011;21057;51.024;7.540;2022-11-22T03:22:26;30.93;;;29.13;;
15454;SDS011;21057;51.024;7.540;2022-11-22T03:24:53;30.13;;;28.23;;
15454;SDS011;21057;51.024;7.540;2022-11-22T03:27:20;30.60;;;28.90;;
15454;SDS011;21057;51.024;7.540;2022-11-22T03:29:46;30.87;;;28.73;;
15454;SDS011;21057;51.024;7.540;2022-11-22T03:32:13;31.90;;;29.97;;
15454;SDS011;21057;51.024;7.540;2022-11-22T03:34:41;30.87;;;29.00;;
15454;SDS011;21057;51.024;7.540;2022-11-22T03:37:08;33.47;;;30.63;;
15454;SDS011;21057;51.024;7.540;2022-11-22T03:39:35;31.90;;;30.07;;
15454;SDS011;21057;51.024;7.540;2022-11-22T03:42:02;32.37;;;30.47;;
15454;SDS011;21057;51.024;7.540;2022-11-22T03:44:29;29.77;;;28.07;;
15454;SDS011;21057;51.024;7.540;2022-11-22T03:46:56;29.83;;;28.10;;
15454;SDS011;21057;51.024;7.540;2022-11-22T03:49:22;29.30;;;27.60;;
15454;SDS011;21057;51.024;7.540;2022-11-22T03:51:51;30.80;;;29.10;;
15454;SDS011;21057;51.024;7.540;2022-11-22T03:54:17;30.03;;;28.33;;
15454;SDS011;21057;51.024;7.540;2022-11-22T03:56:44;29.43;;;27.73;;
15454;SDS011;21057;51.024;7.540;2022-11-22T03:59:11;30.13;;;28.23;;
15454;SDS011;21057;51.024;7.540;2022-11-22T04:01:38;29.57;;;27.87;;
15454;SDS011;21057;51.024;7.540;2022-11-22T04:04:05;28.73;;;27.13;;
15454;SDS011;21057;51.024;7.540;2022-11-22T04:06:31;28.97;;;27.27;;
15454;SDS011;21057;51.024;7.540;2022-11-22T04:09:00;30.47;;;28.67;;
15454;SDS011;21057;51.024;7.540;2022-11-22T04:11:26;29.47;;;27.67;;
15454;SDS011;21057;51.024;7.540;2022-11-22T04:13:53;30.33;;;28.50;;
15454;SDS011;21057;51.024;7.540;2022-11-22T04:16:38;30.57;;;28.83;;
15454;SDS011;21057;51.024;7.540;2022-11-22T04:19:05;30.27;;;28.47;;
15454;SDS011;21057;51.024;7.540;2022-11-22T04:21:32;30.70;;;28.60;;
15454;SDS011;21057;51.024;7.540;2022-11-22T04:23:59;31.03;;;28.73;;
15454;SDS011;21057;51.024;7.540;2022-11-22T04:26:44;31.60;;;29.80;;
15454;SDS011;21057;51.024;7.540;2022-11-22T04:29:11;31.20;;;29.50;;
15454;SDS011;21057;51.024;7.540;2022-11-22T04:31:38;30.93;;;29.13;;
15454;SDS011;21057;51.024;7.540;2022-11-22T04:34:22;31.97;;;30.17;;
15454;SDS011;21057;51.024;7.540;2022-11-22T04:36:49;30.47;;;28.73;;
15454;SDS011;21057;51.024;7.540;2022-11-22T04:39:17;32.93;;;31.03;;
15454;SDS011;21057;51.024;7.540;2022-11-22T04:41:43;31.53;;;29.83;;
15454;SDS011;21057;51.024;7.540;2022-11-22T04:44:10;32.67;;;30.80;;
15454;SDS011;21057;51.024;7.540;2022-11-22T04:47:03;34.00;;;32.00;;
15454;SDS011;21057;51.024;7.540;2022-11-22T04:49:30;31.37;;;29.67;;
15454;SDS011;21057;51.024;7.540;2022-11-22T04:51:57;30.77;;;28.87;;
15454;SDS011;21057;51.024;7.540;2022-11-22T04:54:42;33.33;;;31.43;;
15454;SDS011;21057;51.024;7.540;2022-11-22T04:57:09;32.43;;;30.57;;
15454;SDS011;21057;51.024;7.540;2022-11-22T04:59:36;32.93;;;30.93;;
15454;SDS011;21057;51.024;7.540;2022-11-22T05:02:03;32.10;;;30.37;;
15454;SDS011;21057;51.024;7.540;2022-11-22T05:04:29;34.70;;;32.80;;
15454;SDS011;21057;51.024;7.540;2022-11-22T05:06:56;35.43;;;32.93;;
15454;SDS011;21057;51.024;7.540;2022-11-22T05:09:24;35.93;;;33.93;;
15454;SDS011;21057;51.024;7.540;2022-11-22T05:11:52;36.07;;;33.73;;
15454;SDS011;21057;51.024;7.540;2022-11-22T05:14:19;34.67;;;32.87;;
15454;SDS011;21057;51.024;7.540;2022-11-22T05:16:46;34.43;;;32.63;;
15454;SDS011;21057;51.024;7.540;2022-11-22T05:19:13;35.43;;;33.53;;
15454;SDS011;21057;51.024;7.540;2022-11-22T05:21:39;35.43;;;33.33;;
15454;SDS011;21057;51.024;7.540;2022-11-22T05:24:07;35.27;;;33.23;;
15454;SDS011;21057;51.024;7.540;2022-11-22T05:26:34;34.63;;;32.43;;
15454;SDS011;21057;51.024;7.540;2022-11-22T05:29:04;35.67;;;33.77;;
15454;SDS011;21057;51.024;7.540;2022-11-22T05:31:32;36.87;;;34.70;;
15454;SDS011;21057;51.024;7.540;2022-11-22T05:34:00;36.30;;;34.30;;
15454;SDS011;21057;51.024;7.540;2022-11-22T05:36:29;38.37;;;36.37;;
15454;SDS011;21057;51.024;7.540;2022-11-22T05:38:56;37.30;;;35.40;;
15454;SDS011;21057;51.024;7.540;2022-11-22T05:41:23;37.73;;;35.83;;
15454;SDS011;21057;51.024;7.540;2022-11-22T05:43:52;37.13;;;35.20;;
15454;SDS011;21057;51.024;7.540;2022-11-22T05:46:22;38.00;;;36.10;;
15454;SDS011;21057;51.024;7.540;2022-11-22T05:48:51;40.07;;;37.50;;
15454;SDS011;21057;51.024;7.540;2022-11-22T05:51:20;38.13;;;35.77;;
15454;SDS011;21057;51.024;7.540;2022-11-22T05:53:48;39.57;;;37.17;;
15454;SDS011;21057;51.024;7.540;2022-11-22T05:56:16;38.77;;;36.57;;
15454;SDS011;21057;51.024;7.540;2022-11-22T05:58:44;39.77;;;37.50;;
15454;SDS011;21057;51.024;7.540;2022-11-22T06:01:11;38.03;;;35.90;;
15454;SDS011;21057;51.024;7.540;2022-11-22T06:03:41;38.43;;;36.10;;
15454;SDS011;21057;51.024;7.540;2022-11-22T06:06:08;41.23;;;38.00;;
15454;SDS011;21057;51.024;7.540;2022-11-22T06:08:36;38.47;;;36.30;;
15454;SDS011;21057;51.024;7.540;2022-11-22T06:11:05;39.67;;;37.27;;
15454;SDS011;21057;51.024;7.540;2022-11-22T06:13:33;42.33;;;39.93;;
15454;SDS011;21057;51.024;7.540;2022-11-22T06:16:01;42.33;;;39.87;;
15454;SDS011;21057;51.024;7.540;2022-11-22T06:18:28;39.80;;;37.60;;
15454;SDS011;21057;51.024;7.540;2022-11-22T06:20:57;39.17;;;37.17;;
15454;SDS011;21057;51.024;7.540;2022-11-22T06:23:24;39.50;;;37.20;;
15454;SDS011;21057;51.024;7.540;2022-11-22T06:25:56;39.07;;;36.90;;
15454;SDS011;21057;51.024;7.540;2022-11-22T06:28:24;39.63;;;37.23;;
15454;SDS011;21057;51.024;7.540;2022-11-22T06:30:51;38.00;;;36.00;;
15454;SDS011;21057;51.024;7.540;2022-11-22T06:33:18;36.33;;;34.33;;
15454;SDS011;21057;51.024;7.540;2022-11-22T06:35:45;38.43;;;35.93;;
15454;SDS011;21057;51.024;7.540;2022-11-22T06:38:13;44.93;;;40.57;;
15454;SDS011;21057;51.024;7.540;2022-11-22T06:40:40;41.27;;;38.20;;
15454;SDS011;21057;51.024;7.540;2022-11-22T06:43:06;35.20;;;33.30;;
15454;SDS011;21057;51.024;7.540;2022-11-22T06:45:33;37.07;;;34.77;;
15454;SDS011;21057;51.024;7.540;2022-11-22T06:48:00;36.07;;;33.83;;
15454;SDS011;21057;51.024;7.540;2022-11-22T06:50:27;36.03;;;34.17;;
15454;SDS011;21057;51.024;7.540;2022-11-22T06:52:54;40.13;;;37.67;;
15454;SDS011;21057;51.024;7.540;2022-11-22T06:55:22;38.30;;;36.20;;
15454;SDS011;21057;51.024;7.540;2022-11-22T06:57:49;35.90;;;33.97;;
15454;SDS011;21057;51.024;7.540;2022-11-22T07:00:16;36.10;;;34.20;;
15454;SDS011;21057;51.024;7.540;2022-11-22T07:02:45;39.30;;;37.10;;
15454;SDS011;21057;51.024;7.540;2022-11-22T07:05:12;39.23;;;36.97;;
15454;SDS011;21057;51.024;7.540;2022-11-22T07:07:39;36.27;;;34.17;;
15454;SDS011;21057;51.024;7.540;2022-11-22T07:10:06;34.40;;;32.40;;
15454;SDS011;21057;51.024;7.540;2022-11-22T07:12:38;36.23;;;34.23;;
15454;SDS011;21057;51.024;7.540;2022-11-22T07:15:05;35.97;;;33.97;;
15454;SDS011;21057;51.024;7.540;2022-11-22T07:17:32;35.70;;;33.70;;
15454;SDS011;21057;51.024;7.540;2022-11-22T07:19:59;35.73;;;33.63;;
15454;SDS011;21057;51.024;7.540;2022-11-22T07:22:25;35.97;;;33.93;;
15454;SDS011;21057;51.024;7.540;2022-11-22T07:24:53;35.13;;;32.60;;
15454;SDS011;21057;51.024;7.540;2022-11-22T07:27:20;35.00;;;32.70;;
15454;SDS011;21057;51.024;7.540;2022-11-22T07:29:48;35.80;;;33.70;;
15454;SDS011;21057;51.024;7.540;2022-11-22T07:32:14;36.83;;;34.60;;
15454;SDS011;21057;51.024;7.540;2022-11-22T07:34:41;36.10;;;33.67;;
15454;SDS011;21057;51.024;7.540;2022-11-22T07:37:08;34.43;;;32.53;;
15454;SDS011;21057;51.024;7.540;2022-11-22T07:39:35;36.23;;;34.13;;
15454;SDS011;21057;51.024;7.540;2022-11-22T07:42:02;37.80;;;35.70;;
15454;SDS011;21057;51.024;7.540;2022-11-22T07:44:28;36.57;;;34.47;;
15454;SDS011;21057;51.024;7.540;2022-11-22T07:46:56;37.20;;;35.10;;
15454;SDS011;21057;51.024;7.540;2022-11-22T07:49:23;36.10;;;34.20;;
15454;SDS011;21057;51.024;7.540;2022-11-22T07:51:50;39.53;;;37.00;;
15454;SDS011;21057;51.024;7.540;2022-11-22T07:54:17;37.50;;;35.50;;
15454;SDS011;21057;51.024;7.540;2022-11-22T07:56:44;35.40;;;33.30;;
15454;SDS011;21057;51.024;7.540;2022-11-22T07:59:11;35.83;;;33.83;;
15454;SDS011;21057;51.024;7.540;2022-11-22T08:01:38;36.10;;;34.10;;
15454;SDS011;21057;51.024;7.540;2022-11-22T08:04:07;38.20;;;35.43;;
15454;SDS011;21057;51.024;7.540;2022-11-22T08:06:33;35.67;;;33.77;;
15454;SDS011;21057;51.024;7.540;2022-11-22T08:09:00;36.43;;;34.07;;
15454;SDS011;21057;51.024;7.540;2022-11-22T08:11:27;34.93;;;32.80;;
15454;SDS011;21057;51.024;7.540;2022-11-22T08:13:54;35.53;;;33.53;;
15454;SDS011;21057;51.024;7.540;2022-11-22T08:16:21;34.33;;;32.23;;
15454;SDS011;21057;51.024;7.540;2022-11-22T08:18:48;37.77;;;35.07;;
15454;SDS011;21057;51.024;7.540;2022-11-22T08:21:17;35.37;;;33.47;;
15454;SDS011;21057;51.024;7.540;2022-11-22T08:23:44;36.50;;;34.13;;
15454;SDS011;21057;51.024;7.540;2022-11-22T08:26:13;35.77;;;33.17;;
15454;SDS011;21057;51.024;7.540;2022-11-22T08:28:42;33.30;;;31.13;;
15454;SDS011;21057;51.024;7.540;2022-11-22T08:31:09;34.20;;;32.03;;
15454;SDS011;21057;51.024;7.540;2022-11-22T08:33:38;34.80;;;32.90;;
15454;SDS011;21057;51.024;7.540;2022-11-22T08:36:06;34.80;;;32.80;;
15454;SDS011;21057;51.024;7.540;2022-11-22T08:38:35;35.83;;;32.90;;
15454;SDS011;21057;51.024;7.540;2022-11-22T08:41:02;34.83;;;32.63;;
15454;SDS011;21057;51.024;7.540;2022-11-22T08:43:31;32.90;;;30.37;;
15454;SDS011;21057;51.024;7.540;2022-11-22T08:45:58;32.57;;;30.43;;
15454;SDS011;21057;51.024;7.540;2022-11-22T08:48:26;34.73;;;31.43;;
15454;SDS011;21057;51.024;7.540;2022-11-22T08:50:54;31.17;;;29.37;;
15454;SDS011;21057;51.024;7.540;2022-11-22T08:53:22;32.97;;;30.30;;
15454;SDS011;21057;51.024;7.540;2022-11-22T08:55:55;33.00;;;30.60;;
15454;SDS011;21057;51.024;7.540;2022-11-22T08:58:25;32.83;;;30.60;;
15454;SDS011;21057;51.024;7.540;2022-11-22T09:00:52;32.03;;;30.17;;
15454;SDS011;21057;51.024;7.540;2022-11-22T09:03:19;31.70;;;29.90;;
15454;SDS011;21057;51.024;7.540;2022-11-22T09:05:46;34.67;;;31.97;;
15454;SDS011;21057;51.024;7.540;2022-11-22T09:08:12;35.60;;;33.40;;
15454;SDS011;21057;51.024;7.540;2022-11-22T09:10:45;33.60;;;31.60;;
15454;SDS011;21057;51.024;7.540;2022-11-22T09:13:13;31.90;;;29.90;;
15454;SDS011;21057;51.024;7.540;2022-11-22T09:15:40;32.50;;;30.70;;
15454;SDS011;21057;51.024;7.540;2022-11-22T09:18:07;32.97;;;31.17;;
15454;SDS011;21057;51.024;7.540;2022-11-22T09:20:34;33.87;;;31.07;;
15454;SDS011;21057;51.024;7.540;2022-11-22T09:23:01;30.87;;;28.63;;
15454;SDS011;21057;51.024;7.540;2022-11-22T09:25:28;30.93;;;29.13;;
15454;SDS011;21057;51.024;7.540;2022-11-22T09:27:58;31.07;;;28.97;;
15454;SDS011;21057;51.024;7.540;2022-11-22T09:30:26;28.63;;;27.03;;
15454;SDS011;21057;51.024;7.540;2022-11-22T09:32:53;28.87;;;26.80;;
15454;SDS011;21057;51.024;7.540;2022-11-22T09:35:19;28.90;;;27.20;;
15454;SDS011;21057;51.024;7.540;2022-11-22T09:37:46;31.80;;;29.53;;
15454;SDS011;21057;51.024;7.540;2022-11-22T09:40:15;30.60;;;28.23;;
15454;SDS011;21057;51.024;7.540;2022-11-22T09:42:45;31.30;;;28.73;;
15454;SDS011;21057;51.024;7.540;2022-11-22T09:48:31;28.67;;;26.60;;
15454;SDS011;21057;51.024;7.540;2022-11-22T09:51:09;29.87;;;27.53;;
15454;SDS011;21057;51.024;7.540;2022-11-22T09:53:41;24.57;;;23.00;;
15454;SDS011;21057;51.024;7.540;2022-11-22T09:56:14;25.70;;;23.90;;
15454;SDS011;21057;51.024;7.540;2022-11-22T09:58:45;27.43;;;25.83;;
15454;SDS011;21057;51.024;7.540;2022-11-22T10:01:19;28.87;;;26.73;;
15454;SDS011;21057;51.024;7.540;2022-11-22T10:03:51;24.93;;;23.53;;
15454;SDS011;21057;51.024;7.540;2022-11-22T10:06:23;26.83;;;25.03;;
15454;SDS011;21057;51.024;7.540;2022-11-22T10:08:56;30.40;;;27.50;;
15454;SDS011;21057;51.024;7.540;2022-11-22T10:11:33;27.80;;;25.03;;
15454;SDS011;21057;51.024;7.540;2022-11-22T10:14:04;27.03;;;25.50;;
15454;SDS011;21057;51.024;7.540;2022-11-22T10:16:38;25.70;;;24.10;;
15454;SDS011;21057;51.024;7.540;2022-11-22T10:19:09;26.40;;;24.53;;
15454;SDS011;21057;51.024;7.540;2022-11-22T10:21:39;25.57;;;23.77;;
15454;SDS011;21057;51.024;7.540;2022-11-22T10:24:09;23.33;;;21.83;;
15454;SDS011;21057;51.024;7.540;2022-11-22T10:26:39;23.97;;;22.10;;
15454;SDS011;21057;51.024;7.540;2022-11-22T10:29:16;21.80;;;20.60;;
15454;SDS011;21057;51.024;7.540;2022-11-22T10:31:56;22.90;;;21.20;;
15454;SDS011;21057;51.024;7.540;2022-11-22T10:34:35;22.87;;;21.53;;
15454;SDS011;21057;51.024;7.540;2022-11-22T10:37:12;25.40;;;23.70;;
15454;SDS011;21057;51.024;7.540;2022-11-22T10:39:49;22.67;;;21.27;;
15454;SDS011;21057;51.024;7.540;2022-11-22T10:42:28;24.87;;;21.80;;
15454;SDS011;21057;51.024;7.540;2022-11-22T10:45:09;23.30;;;21.70;;
15454;SDS011;21057;51.024;7.540;2022-11-22T10:47:44;23.23;;;21.87;;
15454;SDS011;21057;51.024;7.540;2022-11-22T10:50:19;22.93;;;21.63;;
15454;SDS011;21057;51.024;7.540;2022-11-22T10:52:54;31.63;;;20.10;;
15454;SDS011;21057;51.024;7.540;2022-11-22T10:55:34;22.63;;;21.33;;
15454;SDS011;21057;51.024;7.540;2022-11-22T10:58:12;23.83;;;22.33;;
15454;SDS011;21057;51.024;7.540;2022-11-22T11:00:46;22.23;;;20.50;;
15454;SDS011;21057;51.024;7.540;2022-11-22T11:03:23;22.93;;;21.43;;
15454;SDS011;21057;51.024;7.540;2022-11-22T11:05:54;22.63;;;21.23;;
15454;SDS011;21057;51.024;7.540;2022-11-22T11:08:27;22.40;;;21.03;;
15454;SDS011;21057;51.024;7.540;2022-11-22T11:10:59;23.23;;;21.83;;
15454;SDS011;21057;51.024;7.540;2022-11-22T11:13:28;24.27;;;22.30;;
15454;SDS011;21057;51.024;7.540;2022-11-22T11:15:59;22.67;;;21.47;;
15454;SDS011;21057;51.024;7.540;2022-11-22T11:18:31;21.63;;;20.17;;
15454;SDS011;21057;51.024;7.540;2022-11-22T11:21:05;21.40;;;20.10;;
15454;SDS011;21057;51.024;7.540;2022-11-22T11:23:32;22.10;;;20.60;;
15454;SDS011;21057;51.024;7.540;2022-11-22T11:26:13;22.77;;;21.10;;
15454;SDS011;21057;51.024;7.540;2022-11-22T11:28:44;20.47;;;19.27;;
15454;SDS011;21057;51.024;7.540;2022-11-22T11:31:11;22.53;;;21.10;;
15454;SDS011;21057;51.024;7.540;2022-11-22T11:33:41;21.03;;;19.83;;
15454;SDS011;21057;51.024;7.540;2022-11-22T11:36:09;21.20;;;20.00;;
15454;SDS011;21057;51.024;7.540;2022-11-22T11:38:47;23.87;;;22.47;;
15454;SDS011;21057;51.024;7.540;2022-11-22T11:41:22;24.23;;;22.57;;
15454;SDS011;21057;51.024;7.540;2022-11-22T11:43:51;24.57;;;22.53;;
15454;SDS011;21057;51.024;7.540;2022-11-22T11:46:19;23.03;;;21.40;;
15454;SDS011;21057;51.024;7.540;2022-11-22T11:48:49;23.53;;;22.23;;
15454;SDS011;21057;51.024;7.540;2022-11-22T11:51:19;22.13;;;20.73;;
15454;SDS011;21057;51.024;7.540;2022-11-22T11:53:51;24.07;;;22.17;;
15454;SDS011;21057;51.024;7.540;2022-11-22T11:59:14;23.40;;;21.80;;
15454;SDS011;21057;51.024;7.540;2022-11-22T12:01:48;22.70;;;21.40;;
15454;SDS011;21057;51.024;7.540;2022-11-22T12:04:21;22.07;;;20.83;;
15454;SDS011;21057;51.024;7.540;2022-11-22T12:06:56;23.80;;;22.50;;
15454;SDS011;21057;51.024;7.540;2022-11-22T12:09:28;23.57;;;21.60;;
15454;SDS011;21057;51.024;7.540;2022-11-22T12:12:08;24.30;;;22.93;;
15454;SDS011;21057;51.024;7.540;2022-11-22T12:14:42;23.63;;;22.23;;
15454;SDS011;21057;51.024;7.540;2022-11-22T12:17:27;23.17;;;21.87;;
15454;SDS011;21057;51.024;7.540;2022-11-22T12:20:01;23.43;;;21.93;;
15454;SDS011;21057;51.024;7.540;2022-11-22T12:22:32;25.33;;;23.73;;
15454;SDS011;21057;51.024;7.540;2022-11-22T12:25:13;24.90;;;23.40;;
15454;SDS011;21057;51.024;7.540;2022-11-22T12:27:45;23.87;;;22.47;;
15454;SDS011;21057;51.024;7.540;2022-11-22T12:30:13;24.40;;;22.97;;
15454;SDS011;21057;51.024;7.540;2022-11-22T12:32:41;23.90;;;22.30;;
15454;SDS011;21057;51.024;7.540;2022-11-22T12:35:15;22.60;;;21.40;;
15454;SDS011;21057;51.024;7.540;2022-11-22T12:37:47;23.50;;;21.47;;
15454;SDS011;21057;51.024;7.540;2022-11-22T12:40:20;21.43;;;20.23;;
15454;SDS011;21057;51.024;7.540;2022-11-22T12:42:50;21.70;;;20.27;;
15454;SDS011;21057;51.024;7.540;2022-11-22T12:45:22;22.50;;;21.20;;
15454;SDS011;21057;51.024;7.540;2022-11-22T12:47:53;23.07;;;21.73;;
15454;SDS011;21057;51.024;7.540;2022-11-22T12:50:25;23.43;;;22.13;;
15454;SDS011;21057;51.024;7.540;2022-11-22T12:52:56;22.43;;;20.87;;
15454;SDS011;21057;51.024;7.540;2022-11-22T12:55:29;21.97;;;20.77;;
15454;SDS011;21057;51.024;7.540;2022-11-22T12:58:06;21.50;;;20.33;;
15454;SDS011;21057;51.024;7.540;2022-11-22T13:00:45;21.33;;;20.13;;
15454;SDS011;21057;51.024;7.540;2022-11-22T13:03:25;22.27;;;21.07;;
15454;SDS011;21057;51.024;7.540;2022-11-22T13:05:58;21.83;;;20.63;;
15454;SDS011;21057;51.024;7.540;2022-11-22T13:08:30;22.07;;;20.87;;
15454;SDS011;21057;51.024;7.540;2022-11-22T13:11:03;21.20;;;20.10;;
15454;SDS011;21057;51.024;7.540;2022-11-22T13:13:36;21.73;;;20.53;;
15454;SDS011;21057;51.024;7.540;2022-11-22T13:16:06;21.40;;;20.20;;
15454;SDS011;21057;51.024;7.540;2022-11-22T13:18:35;21.60;;;20.20;;
15454;SDS011;21057;51.024;7.540;2022-11-22T13:21:09;22.47;;;20.47;;
15454;SDS011;21057;51.024;7.540;2022-11-22T13:23:48;21.70;;;20.40;;
15454;SDS011;21057;51.024;7.540;2022-11-22T13:26:25;21.23;;;20.00;;
15454;SDS011;21057;51.024;7.540;2022-11-22T13:29:00;21.53;;;20.20;;
15454;SDS011;21057;51.024;7.540;2022-11-22T13:31:34;22.00;;;20.67;;
15454;SDS011;21057;51.024;7.540;2022-11-22T13:34:01;21.80;;;20.60;;
15454;SDS011;21057;51.024;7.540;2022-11-22T13:36:50;22.70;;;21.43;;
15454;SDS011;21057;51.024;7.540;2022-11-22T13:39:18;23.13;;;21.63;;
15454;SDS011;21057;51.024;7.540;2022-11-22T13:41:50;23.63;;;22.13;;
15454;SDS011;21057;51.024;7.540;2022-11-22T13:53:27;23.03;;;21.73;;
15454;SDS011;21057;51.024;7.540;2022-11-22T13:55:56;22.97;;;21.47;;
15454;SDS011;21057;51.024;7.540;2022-11-22T13:58:48;22.20;;;20.90;;
15454;SDS011;21057;51.024;7.540;2022-11-22T14:04:28;23.10;;;21.70;;
15454;SDS011;21057;51.024;7.540;2022-11-22T14:07:04;23.93;;;22.10;;
15454;SDS011;21057;51.024;7.540;2022-11-22T14:09:52;22.80;;;21.27;;
15454;SDS011;21057;51.024;7.540;2022-11-22T14:12:32;22.93;;;21.53;;
15454;SDS011;21057;51.024;7.540;2022-11-22T14:15:16;22.97;;;21.57;;
15454;SDS011;21057;51.024;7.540;2022-11-22T14:17:50;22.57;;;21.17;;
15454;SDS011;21057;51.024;7.540;2022-11-22T14:20:34;23.47;;;22.07;;
15454;SDS011;21057;51.024;7.540;2022-11-22T14:23:10;21.93;;;20.70;;
15454;SDS011;21057;51.024;7.540;2022-11-22T14:25:53;21.03;;;19.80;;
15454;SDS011;21057;51.024;7.540;2022-11-22T14:28:37;23.53;;;22.13;;
15454;SDS011;21057;51.024;7.540;2022-11-22T14:31:25;21.63;;;20.43;;
15454;SDS011;21057;51.024;7.540;2022-11-22T14:34:17;21.60;;;20.50;;
15454;SDS011;21057;51.024;7.540;2022-11-22T14:37:32;22.93;;;21.27;;
15454;SDS011;21057;51.024;7.540;2022-11-22T14:40:08;22.30;;;21.10;;
15454;SDS011;21057;51.024;7.540;2022-11-22T14:42:48;23.43;;;22.23;;
15454;SDS011;21057;51.024;7.540;2022-11-22T14:45:20;23.03;;;21.73;;
15454;SDS011;21057;51.024;7.540;2022-11-22T14:47:53;23.13;;;21.93;;
15454;SDS011;21057;51.024;7.540;2022-11-22T14:50:28;23.90;;;22.30;;
15454;SDS011;21057;51.024;7.540;2022-11-22T14:52:59;22.93;;;21.73;;
15454;SDS011;21057;51.024;7.540;2022-11-22T14:55:33;22.00;;;20.70;;
15454;SDS011;21057;51.024;7.540;2022-11-22T14:58:03;22.83;;;21.63;;
15454;SDS011;21057;51.024;7.540;2022-11-22T15:00:36;22.07;;;20.77;;